• Join FlightAware (Why Join?)
  • Login
  • US Flag 
05:35PM EST


 

Airport Tracker/Info


-or-


 

Live Flight TrackerFlight Track Log ✈ SWA558 ✈ 21-Feb-2014 ✈ KLAS - KHOU

Flight Track Log - Related Links

Times and Time Zones

All times are in EST time to prevent confusion due to time zone crossing. See the SWA558 flight status page for this flight to view local times or setup timezone preferences in your user account.

Time Position Orientation Groundspeed Altitude Reporting Facility
EST Latitude Longitude Course Direction KTS MPH feet Rate Location/Type
10:50PM 36.0758 -115.1869 267° West 155 178 4,400  Level Los Angeles Center
10:51PM 36.0575 -115.2619 253° West 206 237 7,000 1,320 Climbing Los Angeles Center
10:52PM 36.0061 -115.2842 199° South 207 238 7,100 60 Climbing Los Angeles Center
10:52PM 36.0033 -115.2853 198° South 208 239 7,100 -120 Level Los Angeles Center
10:53PM 35.9411 -115.2742 172° South 262 302 7,000 900 Descending Los Angeles Center
10:54PM 35.9369 -115.1706 93° East 286 329 9,000 2,760 Climbing Los Angeles Center
10:55PM 35.9361 -115.0661 91° East 317 365 12,700 3,720 Climbing Los Angeles Center
10:56PM 35.9358 -114.9369 90° East 353 406 16,700 3,420 Climbing Los Angeles Center
10:57PM 35.9322 -114.8181 92° East 381 438 19,800 3,000 Climbing Los Angeles Center
10:58PM 35.9322 -114.6806 90° East 398 458 22,900 2,340 Climbing Los Angeles Center
10:59PM 35.9300 -114.5344 91° East 424 488 24,700 1,920 Climbing Los Angeles Center
11:00PM 35.9283 -114.3525 91° East 440 506 26,900 1,860 Climbing Los Angeles Center
11:01PM 35.9261 -114.2000 91° East 444 511 28,600 1,620 Climbing Los Angeles Center
11:02PM 35.9225 -114.0467 92° East 447 514 30,300 1,680 Climbing Los Angeles Center
11:03PM 35.8664 -113.9108 117° Southeast 443 510 32,100 1,680 Climbing Los Angeles Center
11:04PM 35.8050 -113.7817 120° Southeast 437 503 33,800 1,680 Climbing Los Angeles Center
11:05PM 35.7436 -113.6542 121° Southeast 434 499 35,600 1,680 Climbing Los Angeles Center
11:06PM 35.6808 -113.5219 120° Southeast 429 494 37,300 1,620 Climbing Los Angeles Center
11:07PM 35.6208 -113.3986 121° Southeast 424 488 39,000 1,200 Climbing Los Angeles Center
11:08PM 35.5519 -113.2558 121° Southeast 418 481 39,800 420 Climbing Los Angeles Center
11:09PM 35.4881 -113.1253 121° Southeast 440 506 39,900 180 Climbing Los Angeles Center
11:10PM 35.4200 -112.9839 121° Southeast 473 544 40,200 300 Climbing Los Angeles Center
11:11PM 35.3564 -112.8567 121° Southeast 493 567 40,600 360 Climbing Albuquerque Center
11:12PM 35.2797 -112.7006 121° Southeast 507 583 41,000 180 Climbing Albuquerque Center
11:13PM 35.2067 -112.5542 121° Southeast 507 583 41,000  Level Albuquerque Center
11:14PM 35.1336 -112.4075 121° Southeast 506 582 41,000  Level Albuquerque Center
11:15PM 35.0606 -112.2622 122° Southeast 506 582 41,000  Level Albuquerque Center
11:16PM 34.9733 -112.0875 121° Southeast 505 581 41,000  Level Albuquerque Center
11:17PM 34.9006 -111.9439 122° Southeast 503 579 41,000  Level Albuquerque Center
11:18PM 34.8281 -111.7994 121° Southeast 502 578 41,000  Level Albuquerque Center
11:19PM 34.7558 -111.6564 122° Southeast 502 578 41,000  Level Albuquerque Center
11:20PM 34.6933 -111.5056 117° Southeast 502 578 41,000  Level Albuquerque Center
11:21PM 34.6539 -111.3431 106° East 501 577 41,000  Level Albuquerque Center
11:22PM 34.6139 -111.1814 107° East 499 574 41,000  Level Albuquerque Center
11:23PM 34.5733 -111.0189 107° East 502 578 41,000  Level Albuquerque Center
11:24PM 34.5333 -110.8575 107° East 500 575 41,000  Level Albuquerque Center
11:26PM 34.4867 -110.6636 106° East 499 574 41,000  Level Albuquerque Center
11:27PM 34.4481 -110.5025 106° East 498 573 41,000  Level Albuquerque Center
11:28PM 34.4033 -110.3350 108° East 508 585 41,000  Level Albuquerque Center
11:29PM 34.3644 -110.1803 107° East 507 583 41,000  Level Albuquerque Center
11:30PM 34.3175 -109.9992 107° East 506 582 41,000  Level Albuquerque Center
11:31PM 34.2775 -109.8456 107° East 504 580 41,000  Level Albuquerque Center
11:32PM 34.2381 -109.6911 107° East 503 579 41,000  Level Albuquerque Center
11:33PM 34.1917 -109.5133 107° East 501 577 41,000  Level Albuquerque Center
11:34PM 34.1478 -109.3483 108° East 499 574 41,000  Level Albuquerque Center
11:35PM 34.1056 -109.1894 108° East 498 573 41,000  Level Albuquerque Center
11:36PM 34.0642 -109.0308 107° East 500 575 41,000  Level Albuquerque Center
11:37PM 34.0211 -108.8700 108° East 498 573 41,000  Level Albuquerque Center
11:38PM 33.9767 -108.7103 109° East 499 574 41,000  Level Albuquerque Center
11:39PM 33.9339 -108.5511 108° East 500 575 41,000  Level Albuquerque Center
11:40PM 33.8850 -108.3711 108° East 505 581 41,000  Level Albuquerque Center
11:41PM 33.8419 -108.2119 108° East 504 580 41,000  Level Albuquerque Center
11:42PM 33.7983 -108.0553 108° East 497 572 41,000  Level Albuquerque Center
11:43PM 33.7519 -107.8961 109° East 500 575 41,000  Level Albuquerque Center
11:44PM 33.7086 -107.7375 108° East 501 577 41,000  Level Albuquerque Center
11:45PM 33.6631 -107.5781 109° East 503 579 41,000  Level Albuquerque Center
11:46PM 33.6172 -107.4183 109° East 504 580 41,000  Level Albuquerque Center
11:47PM 33.5731 -107.2606 109° East 501 577 41,000  Level Albuquerque Center
11:48PM 33.5267 -107.1006 109° East 505 581 41,000  Level Albuquerque Center
11:49PM 33.4808 -106.9428 109° East 503 579 41,000  Level Albuquerque Center
11:50PM 33.4358 -106.7839 109° East 502 578 41,000  Level Albuquerque Center
11:51PM 33.3806 -106.5953 109° East 501 577 41,000  Level Albuquerque Center
11:52PM 33.3353 -106.4375 109° East 499 574 41,000  Level Albuquerque Center
11:53PM 33.2883 -106.2803 110° East 501 577 41,000  Level Albuquerque Center
11:54PM 33.2425 -106.1231 109° East 501 577 41,000  Level Albuquerque Center
11:55PM 33.1956 -105.9656 110° East 501 577 41,000  Level Albuquerque Center
11:56PM 33.1481 -105.8086 110° East 502 578 41,000  Level Albuquerque Center
11:57PM 33.1014 -105.6522 110° East 501 577 41,000  Level Albuquerque Center
11:58PM 33.0461 -105.4708 110° East 509 586 41,000  Level Albuquerque Center
11:59PM 32.9994 -105.3150 110° East 504 580 41,000  Level Albuquerque Center
12:00AM 32.9514 -105.1581 110° East 505 581 41,000  Level Albuquerque Center
12:01AM 32.9053 -105.0033 110° East 502 578 41,000  Level Albuquerque Center
12:02AM 32.8539 -104.8361 110° East 503 579 41,000  Level Albuquerque Center
12:03AM 32.8064 -104.6811 110° East 503 579 41,000  Level Albuquerque Center
12:04AM 32.7575 -104.5242 110° East 507 583 41,000  Level Albuquerque Center
12:05AM 32.7100 -104.3672 110° East 507 583 41,000  Level Albuquerque Center
12:06AM 32.6567 -104.1992 111° Southeast 508 585 41,000  Level Albuquerque Center
12:07AM 32.6078 -104.0433 110° East 508 585 41,000  Level Albuquerque Center
12:08AM 32.5656 -103.9083 110° East 498 573 41,000  Level Albuquerque Center
12:09AM 32.5153 -103.7533 111° Southeast 503 579 41,000  Level Albuquerque Center
12:10AM 32.4667 -103.5983 110° East 504 580 41,000  Level Albuquerque Center
12:11AM 32.4147 -103.4456 112° Southeast 503 579 41,000  Level Albuquerque Center
12:13AM 32.3158 -103.1394 111° Southeast 502 578 41,000  Level Fort Worth Center
12:14AM 32.2650 -102.9861 111° Southeast 503 579 41,000  Level Fort Worth Center
12:15AM 32.2147 -102.8353 111° Southeast 501 577 41,000  Level Fort Worth Center
12:16AM 32.1644 -102.6844 111° Southeast 499 574 41,000  Level Fort Worth Center
12:17AM 32.1050 -102.5056 111° Southeast 502 578 41,000  Level Fort Worth Center
12:18AM 32.0547 -102.3522 111° Southeast 499 574 41,000  Level Fort Worth Center
12:19AM 32.0044 -102.1983 111° Southeast 500 575 41,000  Level Fort Worth Center
12:20AM 31.9519 -102.0450 112° Southeast 502 578 41,000  Level Fort Worth Center
12:21AM 31.8994 -101.8903 112° Southeast 505 581 41,000  Level Fort Worth Center
12:22AM 31.8469 -101.7378 112° Southeast 503 579 41,000  Level Fort Worth Center
12:23AM 31.7950 -101.5853 112° Southeast 501 577 41,000  Level Fort Worth Center
12:24AM 31.7428 -101.4353 112° Southeast 497 572 41,000  Level Fort Worth Center
12:25AM 31.6908 -101.2825 112° Southeast 503 579 41,000  Level Fort Worth Center
12:26AM 31.6386 -101.1300 112° Southeast 503 579 41,000  Level Fort Worth Center
12:27AM 31.5842 -100.9775 113° Southeast 506 582 41,000  Level Fort Worth Center
12:28AM 31.5303 -100.8250 112° Southeast 507 583 41,000  Level Fort Worth Center
12:29AM 31.4769 -100.6719 112° Southeast 507 583 41,000  Level Fort Worth Center
12:30AM 31.4311 -100.5400 112° Southeast 511 588 41,000  Level Houston Center
12:31AM 31.3772 -100.3858 112° Southeast 512 589 41,000  Level Houston Center
12:32AM 31.3225 -100.2319 113° Southeast 513 590 41,000  Level Houston Center
12:33AM 31.2675 -100.0783 113° Southeast 512 589 41,000  Level Houston Center
12:35AM 31.1572 -99.7744 113° Southeast 506 582 41,000  Level Houston Center
12:36AM 31.1033 -99.6236 113° Southeast 503 579 41,000  Level Houston Center
12:38AM 30.9944 -99.3161 112° Southeast 514 592 41,000  Level Houston Center
12:39AM 30.9414 -99.1622 112° Southeast 513 590 41,000  Level Houston Center
12:40AM 30.8933 -99.0219 112° Southeast 515 593 41,000  Level Houston Center
12:41AM 30.8389 -98.8678 112° Southeast 512 589 41,000  Level Houston Center
12:42AM 30.7839 -98.7131 112° Southeast 514 592 41,000  Level Houston Center
12:43AM 30.7286 -98.5572 112° Southeast 517 595 41,000  Level Houston Center
12:44AM 30.6739 -98.4022 112° Southeast 515 593 41,000  Level Houston Center
12:45AM 30.6189 -98.2483 113° Southeast 514 592 41,000  Level Houston Center
12:46AM 30.5639 -98.0944 113° Southeast 514 592 41,000  Level Houston Center
12:48AM 30.4531 -97.7894 113° Southeast 511 588 41,000  Level Houston Center
12:49AM 30.3981 -97.6364 113° Southeast 513 590 41,000 -660 Level Houston Center
12:50AM 30.3433 -97.4842 113° Southeast 512 589 39,700 -1,500 Descending Houston Center
12:51AM 30.2889 -97.3361 113° Southeast 500 575 38,000 -2,280 Descending Houston Center
12:52AM 30.2358 -97.1928 113° Southeast 487 560 35,200 -3,240 Descending Houston Center
12:53AM 30.2092 -97.1253 115° Southeast 488 562 33,600 -3,540 Descending Houston Center
12:54AM 30.1344 -96.9208 113° Southeast 509 586 29,300 -2,940 Descending Houston Center
12:54AM 30.1250 -96.8933 112° Southeast 506 582 28,800 -2,640 Descending Houston Center
12:55AM 30.0814 -96.7817 114° Southeast 500 575 26,600 -3,060 Descending Houston Center
12:55AM 30.0656 -96.7322 110° East 496 571 25,700 -2,820 Descending Houston Center
12:56AM 30.0222 -96.6242 115° Southeast 474 545 23,600 -2,700 Descending Houston Center
12:56AM 30.0128 -96.5936 110° East 476 548 23,100 -2,280 Descending Houston Center
12:57AM 29.9711 -96.4850 114° Southeast 449 517 21,300 -2,280 Descending Houston Center
12:58AM 29.9314 -96.3617 110° East 415 478 19,100 -2,400 Descending Houston Center
12:59AM 29.8944 -96.2478 110° East 402 463 16,700 -2,520 Descending Houston Center
01:00AM 29.8553 -96.1319 111° Southeast 394 453 14,300 -2,280 Descending Houston Center
01:00AM 29.8444 -96.0989 111° Southeast 393 452 13,700 -2,280 Descending Houston Center
01:01AM 29.8128 -96.0042 111° Southeast 363 418 11,800 -2,280 Descending Houston Center
01:02AM 29.8083 -95.9889 109° East 375 432 11,400 -1,560 Descending Houston Center
01:02AM 29.7786 -95.9022 112° Southeast 338 389 10,200 -1,380 Descending Houston Center
01:02AM 29.7739 -95.8889 112° Southeast 349 402 10,100 -840 Descending Houston Center
01:04AM 29.7278 -95.7542 108° East 250 288 8,800 -1,560 Descending Houston Center
01:05AM 29.6972 -95.6689 112° Southeast 300 345 6,100 -2,280 Descending Houston Center
01:06AM 29.6714 -95.5925 111° Southeast 279 321 4,400 -1,560 Descending Houston Center
01:07AM 29.6456 -95.5161 111° Southeast 250 288 3,100 -1,020 Descending Houston Center
01:09AM 29.6061 -95.4033 112° Southeast 166 191 1,500 -540 Descending Houston Center
01:10AM 29.5961 -95.3636 106° East 119 137 1,500  Level Houston Center
01:11AM 29.5942 -95.3492 99° East 136 157 1,500 -480 Level Houston Center
01:11AM 29.6128 -95.3158 57° Northeast 133 153 900 -720 Descending Houston Center
01:12AM 29.6336 -95.2917 45° Northeast 127 146 300 -720 Descending Houston Center
01:14AM 29.6333 -95.2667 108° East  Level FlightAware Approximate
01:21AM 29.6454 -95.2789 108° East  Level Estimated